Time;durP1;ratioP1;P1;durP2;ratioP2;P2;SDS_P1;SDS_P2;PMS_P1;PMS_P2;Temp;Humidity;BMP_temperature;BMP_pressure;BME280_temperature;BME280_humidity;BME280_pressure;Samples;Min_cycle;Max_cycle;Signal;HPM_P1;HPM_P2
2022/08/28 00:00:50;;;;;;;10.88;2.90;;;;;;;;;;4976933;28;20068;-71
2022/08/28 00:03:16;;;;;;;9.30;2.75;;;;;;;;;;4975227;28;20120;-72
2022/08/28 00:05:44;;;;;;;7.57;2.75;;;;;;;;;;4976402;28;20411;-72
2022/08/28 00:08:13;;;;;;;7.32;2.88;;;;;;;;;;4961431;28;20040;-72
2022/08/28 00:10:41;;;;;;;11.07;2.95;;;;;;;;;;4957665;28;20574;-73
2022/08/28 00:13:14;;;;;;;10.27;3.00;;;;;;;;;;4957573;28;20040;-71
2022/08/28 00:15:39;;;;;;;10.93;2.90;;;;;;;;;;4958453;28;20033;-71
2022/08/28 00:18:05;;;;;;;11.98;2.70;;;;;;;;;;4972848;28;20034;-71
2022/08/28 00:20:32;;;;;;;9.43;2.88;;;;;;;;;;4940503;28;20151;-70
2022/08/28 00:23:00;;;;;;;6.28;2.70;;;;;;;;;;4974700;28;20253;-70
2022/08/28 00:25:27;;;;;;;8.90;2.88;;;;;;;;;;4960904;28;20133;-72
2022/08/28 00:27:56;;;;;;;8.38;2.90;;;;;;;;;;4974802;28;20052;-70
2022/08/28 00:30:35;;;;;;;13.15;3.55;;;;;;;;;;4975471;28;20252;-71
2022/08/28 00:33:03;;;;;;;9.25;2.50;;;;;;;;;;4974186;28;20038;-72
2022/08/28 00:35:28;;;;;;;9.80;2.90;;;;;;;;;;4974594;28;20046;-71
2022/08/28 00:37:54;;;;;;;7.30;2.97;;;;;;;;;;4973700;28;20457;-70
2022/08/28 00:40:20;;;;;;;9.90;3.10;;;;;;;;;;4976240;28;20381;-70
2022/08/28 00:42:48;;;;;;;9.07;2.70;;;;;;;;;;4974687;28;20030;-70
2022/08/28 00:45:14;;;;;;;8.40;2.58;;;;;;;;;;4973102;28;20041;-71
2022/08/28 00:47:40;;;;;;;10.80;2.80;;;;;;;;;;4974131;28;21202;-72
2022/08/28 00:50:06;;;;;;;8.82;2.63;;;;;;;;;;4974529;28;20034;-71
2022/08/28 00:52:34;;;;;;;7.10;2.78;;;;;;;;;;4975794;28;20132;-70
2022/08/28 00:55:03;;;;;;;9.95;2.90;;;;;;;;;;4973615;28;21812;-70
2022/08/28 00:57:33;;;;;;;9.23;2.70;;;;;;;;;;4974999;28;20041;-70
2022/08/28 00:59:58;;;;;;;8.77;2.80;;;;;;;;;;4974903;28;20084;-70
2022/08/28 01:02:26;;;;;;;8.10;2.72;;;;;;;;;;4979309;28;20549;-70
2022/08/28 01:04:51;;;;;;;11.02;3.13;;;;;;;;;;4963291;28;20033;-70
2022/08/28 01:07:16;;;;;;;9.52;2.70;;;;;;;;;;4979167;28;20751;-69
2022/08/28 01:09:44;;;;;;;10.45;3.05;;;;;;;;;;4977784;28;20056;-70
2022/08/28 01:12:13;;;;;;;10.60;3.35;;;;;;;;;;4978178;28;20026;-71
2022/08/28 01:14:44;;;;;;;9.80;2.97;;;;;;;;;;4978243;28;20048;-70
2022/08/28 01:17:12;;;;;;;10.90;3.30;;;;;;;;;;4976167;28;20490;-70
2022/08/28 01:19:54;;;;;;;8.60;2.83;;;;;;;;;;4978284;28;20502;-70
2022/08/28 01:22:29;;;;;;;9.88;2.80;;;;;;;;;;4960963;28;20077;-70
2022/08/28 01:24:56;;;;;;;12.40;3.55;;;;;;;;;;4977110;28;20291;-70
2022/08/28 01:27:22;;;;;;;10.10;3.00;;;;;;;;;;4978104;28;20123;-70
2022/08/28 01:29:48;;;;;;;11.88;2.70;;;;;;;;;;4960050;28;21827;-70
2022/08/28 01:32:24;;;;;;;11.15;3.05;;;;;;;;;;4968243;28;20030;-70
2022/08/28 01:34:52;;;;;;;11.65;3.20;;;;;;;;;;4977420;28;20030;-70
2022/08/28 01:37:18;;;;;;;10.27;3.00;;;;;;;;;;4978151;28;20033;-70
2022/08/28 01:39:43;;;;;;;15.25;3.53;;;;;;;;;;4977598;28;20351;-70
2022/08/28 01:42:09;;;;;;;8.63;2.70;;;;;;;;;;4977539;28;20120;-70
2022/08/28 01:44:34;;;;;;;13.10;3.40;;;;;;;;;;4959413;28;20149;-70
2022/08/28 01:46:59;;;;;;;14.13;3.28;;;;;;;;;;4961445;28;20049;-70
2022/08/28 01:49:28;;;;;;;12.25;2.90;;;;;;;;;;4962974;28;20057;-71
2022/08/28 01:51:53;;;;;;;14.05;3.05;;;;;;;;;;4978737;28;20199;-70
2022/08/28 01:54:19;;;;;;;11.50;3.08;;;;;;;;;;4978521;28;20071;-70
2022/08/28 01:56:45;;;;;;;10.45;2.78;;;;;;;;;;4964316;28;20048;-71
2022/08/28 01:59:11;;;;;;;12.25;3.08;;;;;;;;;;4977389;28;20366;-71
2022/08/28 02:01:36;;;;;;;11.73;3.35;;;;;;;;;;4977547;28;20038;-71
2022/08/28 02:04:03;;;;;;;12.10;2.70;;;;;;;;;;4960409;28;20061;-72
2022/08/28 02:06:28;;;;;;;11.63;2.42;;;;;;;;;;4959464;28;20045;-71
2022/08/28 02:08:54;;;;;;;11.93;2.97;;;;;;;;;;4977314;28;20525;-72
2022/08/28 02:11:22;;;;;;;9.77;2.90;;;;;;;;;;4957617;28;20183;-70
2022/08/28 02:13:50;;;;;;;10.30;2.90;;;;;;;;;;4976581;28;20088;-71
2022/08/28 02:16:16;;;;;;;10.88;2.70;;;;;;;;;;4976216;28;20183;-71
2022/08/28 02:18:41;;;;;;;9.48;3.10;;;;;;;;;;4977589;28;20618;-71
2022/08/28 02:21:08;;;;;;;12.27;2.78;;;;;;;;;;4976623;28;20381;-70
2022/08/28 02:23:35;;;;;;;9.15;3.45;;;;;;;;;;4964155;28;20372;-71
2022/08/28 02:26:00;;;;;;;9.85;2.85;;;;;;;;;;4976802;28;20041;-71
2022/08/28 02:28:26;;;;;;;11.18;3.05;;;;;;;;;;4977795;28;20138;-71
2022/08/28 02:30:52;;;;;;;10.93;2.78;;;;;;;;;;4978249;28;20557;-71
2022/08/28 02:33:17;;;;;;;9.38;2.95;;;;;;;;;;4975803;28;20068;-71
2022/08/28 02:35:42;;;;;;;11.82;3.08;;;;;;;;;;4976972;28;20064;-71
2022/08/28 02:38:08;;;;;;;10.70;2.72;;;;;;;;;;4977666;28;20114;-71
2022/08/28 02:40:35;;;;;;;9.13;2.53;;;;;;;;;;4978288;28;20700;-71
2022/08/28 02:43:03;;;;;;;10.43;3.08;;;;;;;;;;4978170;28;20044;-71
2022/08/28 02:45:29;;;;;;;11.95;2.80;;;;;;;;;;4976782;28;20131;-72
2022/08/28 02:47:57;;;;;;;9.10;3.10;;;;;;;;;;4977137;28;20061;-71
2022/08/28 02:50:24;;;;;;;8.95;2.67;;;;;;;;;;4976417;28;20041;-71
2022/08/28 02:52:50;;;;;;;10.90;2.80;;;;;;;;;;4976690;28;20200;-72
2022/08/28 02:55:17;;;;;;;11.57;3.03;;;;;;;;;;4976835;28;20361;-72
2022/08/28 02:57:42;;;;;;;9.65;2.60;;;;;;;;;;4952794;28;20056;-72
2022/08/28 03:00:10;;;;;;;8.40;2.90;;;;;;;;;;4977140;28;20034;-72
2022/08/28 03:02:36;;;;;;;8.88;2.67;;;;;;;;;;4952352;28;20483;-71
2022/08/28 03:05:02;;;;;;;7.60;2.60;;;;;;;;;;4975691;28;20092;-70
2022/08/28 03:07:29;;;;;;;10.65;2.70;;;;;;;;;;4975864;28;20127;-71
2022/08/28 03:09:57;;;;;;;5.80;2.33;;;;;;;;;;4976767;28;20259;-71
2022/08/28 03:12:26;;;;;;;9.75;2.70;;;;;;;;;;4946933;28;20594;-71
2022/08/28 03:14:52;;;;;;;10.80;2.97;;;;;;;;;;4977255;28;20451;-71
2022/08/28 03:17:17;;;;;;;11.45;2.65;;;;;;;;;;4960166;28;20039;-71
2022/08/28 03:19:43;;;;;;;9.50;2.83;;;;;;;;;;4975186;28;20037;-70
2022/08/28 03:22:09;;;;;;;11.27;2.67;;;;;;;;;;4978044;28;20041;-70
2022/08/28 03:24:34;;;;;;;9.40;2.78;;;;;;;;;;4959627;28;20037;-71
2022/08/28 03:27:00;;;;;;;10.45;3.05;;;;;;;;;;4976203;28;20045;-71
2022/08/28 03:29:26;;;;;;;10.55;2.88;;;;;;;;;;4975562;28;20786;-71
2022/08/28 03:31:52;;;;;;;9.60;2.88;;;;;;;;;;4975528;28;20926;-71
2022/08/28 03:34:17;;;;;;;9.50;2.65;;;;;;;;;;4939517;28;20691;-70
2022/08/28 03:36:43;;;;;;;11.20;2.97;;;;;;;;;;4975758;28;20722;-71
2022/08/28 03:39:08;;;;;;;8.63;2.78;;;;;;;;;;4957376;28;20045;-71
2022/08/28 03:41:34;;;;;;;11.40;2.75;;;;;;;;;;4974462;28;20068;-71
2022/08/28 03:44:00;;;;;;;11.70;3.22;;;;;;;;;;4976016;28;20046;-71
2022/08/28 03:46:27;;;;;;;5.20;2.35;;;;;;;;;;4975130;28;20045;-71
2022/08/28 03:48:52;;;;;;;11.75;3.28;;;;;;;;;;4975863;28;20445;-73
2022/08/28 03:51:24;;;;;;;11.95;2.97;;;;;;;;;;4975178;28;20175;-71
2022/08/28 03:53:51;;;;;;;10.52;2.95;;;;;;;;;;4950522;28;20045;-71
2022/08/28 03:56:20;;;;;;;10.50;3.03;;;;;;;;;;4976087;28;20038;-72
2022/08/28 03:58:45;;;;;;;7.20;2.42;;;;;;;;;;4976206;28;20558;-71
2022/08/28 04:01:11;;;;;;;13.40;2.90;;;;;;;;;;4960853;28;20043;-71
2022/08/28 04:03:36;;;;;;;8.55;2.30;;;;;;;;;;4957319;28;20034;-71
2022/08/28 04:06:02;;;;;;;8.93;2.78;;;;;;;;;;4975617;28;20134;-72
2022/08/28 04:08:28;;;;;;;11.57;2.90;;;;;;;;;;4975562;28;20254;-72
2022/08/28 04:10:53;;;;;;;8.88;2.63;;;;;;;;;;4951458;28;20635;-72
2022/08/28 04:13:19;;;;;;;8.65;2.63;;;;;;;;;;4975416;28;20338;-72
2022/08/28 04:15:45;;;;;;;7.82;2.40;;;;;;;;;;4975640;28;20652;-72
2022/08/28 04:18:11;;;;;;;9.93;3.17;;;;;;;;;;4974622;28;20111;-73
2022/08/28 04:20:37;;;;;;;13.68;2.80;;;;;;;;;;4975690;28;20033;-73
2022/08/28 04:23:03;;;;;;;7.55;2.45;;;;;;;;;;4973480;28;20819;-73
2022/08/28 04:25:28;;;;;;;12.38;2.78;;;;;;;;;;4976470;28;20034;-73
2022/08/28 04:27:54;;;;;;;9.88;2.80;;;;;;;;;;4974466;28;20098;-73
2022/08/28 04:30:19;;;;;;;8.23;2.67;;;;;;;;;;4975373;28;20038;-71
2022/08/28 04:32:47;;;;;;;9.05;2.58;;;;;;;;;;4973247;28;20033;-71
2022/08/28 04:35:13;;;;;;;10.20;2.30;;;;;;;;;;4960964;28;20151;-71
2022/08/28 04:37:39;;;;;;;7.45;2.50;;;;;;;;;;4973978;28;20417;-71
2022/08/28 04:40:07;;;;;;;8.23;2.30;;;;;;;;;;4974383;28;20042;-71
2022/08/28 04:42:32;;;;;;;7.43;2.33;;;;;;;;;;4975987;28;20391;-71
2022/08/28 04:44:58;;;;;;;10.90;2.85;;;;;;;;;;4974399;28;20576;-71
2022/08/28 04:47:23;;;;;;;9.30;2.25;;;;;;;;;;4943054;28;20332;-73
2022/08/28 04:49:49;;;;;;;11.90;2.78;;;;;;;;;;4974138;28;20099;-73
2022/08/28 04:52:14;;;;;;;6.32;2.45;;;;;;;;;;4958634;28;20084;-72
2022/08/28 04:54:40;;;;;;;7.43;2.38;;;;;;;;;;4975053;28;20044;-72
2022/08/28 04:57:05;;;;;;;8.13;2.58;;;;;;;;;;4952242;28;20038;-72
2022/08/28 04:59:30;;;;;;;9.43;2.35;;;;;;;;;;4972869;28;20037;-72
2022/08/28 05:01:55;;;;;;;10.38;2.58;;;;;;;;;;4972101;28;20037;-71
2022/08/28 05:04:21;;;;;;;6.57;2.15;;;;;;;;;;4965626;28;20685;-72
2022/08/28 05:06:46;;;;;;;8.55;2.38;;;;;;;;;;4974036;28;20034;-72
2022/08/28 05:09:17;;;;;;;6.97;2.30;;;;;;;;;;4973491;28;20045;-72
2022/08/28 05:11:43;;;;;;;6.22;2.30;;;;;;;;;;4972574;28;20144;-73
2022/08/28 05:14:09;;;;;;;7.78;2.40;;;;;;;;;;4972612;28;20156;-73
2022/08/28 05:16:41;;;;;;;8.65;2.08;;;;;;;;;;4973784;28;20429;-71
2022/08/28 05:19:07;;;;;;;5.75;2.05;;;;;;;;;;4974404;28;20033;-72
2022/08/28 05:21:32;;;;;;;8.60;1.90;;;;;;;;;;4975037;28;20448;-71
2022/08/28 05:23:58;;;;;;;6.05;2.20;;;;;;;;;;4975285;28;20049;-72
2022/08/28 05:26:27;;;;;;;7.18;2.03;;;;;;;;;;4960065;28;20190;-71
2022/08/28 05:28:53;;;;;;;7.30;2.05;;;;;;;;;;4956975;28;20048;-72
2022/08/28 05:31:19;;;;;;;6.40;2.05;;;;;;;;;;4974984;28;20406;-71
2022/08/28 05:33:47;;;;;;;8.30;2.40;;;;;;;;;;4956901;28;20141;-71
2022/08/28 05:36:14;;;;;;;8.25;2.05;;;;;;;;;;4960169;28;20122;-70
2022/08/28 05:38:39;;;;;;;8.98;2.40;;;;;;;;;;4956549;28;20117;-71
2022/08/28 05:41:07;;;;;;;7.43;2.38;;;;;;;;;;4956645;28;20373;-71
2022/08/28 05:43:36;;;;;;;5.00;2.10;;;;;;;;;;4975028;28;20172;-71
2022/08/28 05:46:03;;;;;;;6.07;2.10;;;;;;;;;;4973312;28;20653;-71
2022/08/28 05:48:30;;;;;;;6.53;2.00;;;;;;;;;;4963062;28;20068;-71
2022/08/28 05:51:06;;;;;;;9.38;1.92;;;;;;;;;;4977646;28;20036;-71
2022/08/28 05:53:40;;;;;;;13.10;2.28;;;;;;;;;;4977490;28;20668;-71
2022/08/28 05:56:09;;;;;;;4.88;1.83;;;;;;;;;;4977548;28;20093;-72
2022/08/28 05:58:36;;;;;;;7.45;2.08;;;;;;;;;;4974311;28;20327;-70
2022/08/28 06:01:34;;;;;;;10.90;2.15;;;;;;;;;;4966814;28;20145;-72
2022/08/28 06:04:09;;;;;;;7.22;1.90;;;;;;;;;;4945317;28;20833;-70
2022/08/28 06:06:40;;;;;;;6.72;2.20;;;;;;;;;;4972947;28;20072;-72
2022/08/28 06:09:18;;;;;;;8.27;2.30;;;;;;;;;;4945722;28;20044;-70
2022/08/28 06:11:44;;;;;;;6.40;1.90;;;;;;;;;;4975532;28;20303;-70
2022/08/28 06:14:10;;;;;;;6.28;1.83;;;;;;;;;;4977260;28;20605;-71
2022/08/28 06:16:41;;;;;;;6.93;1.83;;;;;;;;;;4963778;28;20040;-72
2022/08/28 06:19:08;;;;;;;7.25;1.73;;;;;;;;;;4964640;28;20956;-70
2022/08/28 06:21:33;;;;;;;8.68;2.20;;;;;;;;;;4975299;28;20393;-71
2022/08/28 06:23:59;;;;;;;11.70;2.60;;;;;;;;;;4975639;28;20613;-71
2022/08/28 06:26:27;;;;;;;8.55;1.80;;;;;;;;;;4977421;28;20093;-71
2022/08/28 06:28:53;;;;;;;5.47;1.90;;;;;;;;;;4976647;28;20054;-69
2022/08/28 06:31:19;;;;;;;9.90;2.10;;;;;;;;;;4975022;28;20044;-70
2022/08/28 06:33:46;;;;;;;6.35;1.80;;;;;;;;;;4977514;28;20068;-71
2022/08/28 06:36:11;;;;;;;6.85;2.00;;;;;;;;;;4976497;28;20041;-70
2022/08/28 06:38:37;;;;;;;8.43;2.00;;;;;;;;;;4977882;28;20226;-70
2022/08/28 06:41:07;;;;;;;9.60;2.38;;;;;;;;;;4977461;28;20242;-71
2022/08/28 06:43:33;;;;;;;6.50;2.25;;;;;;;;;;4977914;28;20034;-70
2022/08/28 06:45:58;;;;;;;6.15;1.92;;;;;;;;;;4961111;28;20072;-70
2022/08/28 06:48:26;;;;;;;6.63;1.90;;;;;;;;;;4976680;28;20112;-71
2022/08/28 06:50:54;;;;;;;6.93;1.98;;;;;;;;;;4964016;28;20413;-70
2022/08/28 06:53:21;;;;;;;7.32;1.85;;;;;;;;;;4974689;28;20509;-71
2022/08/28 06:55:57;;;;;;;6.95;1.83;;;;;;;;;;4960821;28;20455;-70
2022/08/28 06:58:23;;;;;;;6.93;2.00;;;;;;;;;;4963545;28;20042;-71
2022/08/28 07:00:49;;;;;;;7.15;1.90;;;;;;;;;;4977387;28;20437;-71
2022/08/28 07:03:14;;;;;;;9.23;2.20;;;;;;;;;;4977123;28;20166;-73
2022/08/28 07:05:42;;;;;;;4.00;1.50;;;;;;;;;;4963393;28;20493;-72
2022/08/28 07:08:07;;;;;;;7.30;1.75;;;;;;;;;;4975268;28;20044;-70
2022/08/28 07:10:33;;;;;;;8.02;1.77;;;;;;;;;;4973077;28;20041;-70
2022/08/28 07:13:03;;;;;;;5.88;1.80;;;;;;;;;;4975152;28;20600;-71
2022/08/28 07:15:31;;;;;;;5.10;1.48;;;;;;;;;;4976046;28;20064;-71
2022/08/28 07:17:57;;;;;;;5.18;1.95;;;;;;;;;;4976584;28;20710;-70
2022/08/28 07:20:22;;;;;;;6.95;1.90;;;;;;;;;;4973654;28;20398;-71
2022/08/28 07:22:50;;;;;;;4.88;1.50;;;;;;;;;;4976191;28;20061;-70
2022/08/28 07:25:16;;;;;;;6.60;1.50;;;;;;;;;;4975389;28;20069;-69
2022/08/28 07:27:42;;;;;;;7.85;1.98;;;;;;;;;;4924278;28;20267;-70
2022/08/28 07:30:08;;;;;;;5.78;1.65;;;;;;;;;;4976146;28;20034;-70
2022/08/28 07:32:34;;;;;;;5.40;1.38;;;;;;;;;;4975839;28;20123;-70
2022/08/28 07:34:59;;;;;;;5.78;1.52;;;;;;;;;;4963274;28;20316;-70
2022/08/28 07:37:25;;;;;;;4.40;1.50;;;;;;;;;;4974261;28;20034;-69
2022/08/28 07:39:51;;;;;;;5.35;1.50;;;;;;;;;;4974479;28;20095;-70
2022/08/28 07:44:48;;;;;;;6.00;1.55;;;;;;;;;;4943607;28;21912;-70
2022/08/28 07:45:02;;;;;;;4.25;1.40;;;;;;;;;;4975399;28;20041;-71
2022/08/28 07:47:29;;;;;;;7.22;1.75;;;;;;;;;;4975491;28;20048;-71
2022/08/28 07:49:56;;;;;;;6.97;2.15;;;;;;;;;;4975292;28;20486;-70
2022/08/28 07:52:21;;;;;;;7.47;1.70;;;;;;;;;;4975879;28;20046;-71
2022/08/28 07:54:49;;;;;;;3.78;1.63;;;;;;;;;;4958578;28;20124;-71
2022/08/28 07:57:19;;;;;;;5.43;1.75;;;;;;;;;;4971305;28;20111;-72
2022/08/28 07:59:45;;;;;;;4.75;1.60;;;;;;;;;;4974969;28;20141;-72
2022/08/28 08:02:10;;;;;;;3.42;1.27;;;;;;;;;;4987440;28;20064;-74
2022/08/28 08:04:36;;;;;;;6.18;1.48;;;;;;;;;;4982484;28;20072;-74
2022/08/28 08:07:02;;;;;;;5.10;1.48;;;;;;;;;;4993902;28;20117;-72
2022/08/28 08:09:28;;;;;;;4.45;1.33;;;;;;;;;;4991054;28;20033;-73
2022/08/28 08:11:55;;;;;;;5.70;1.50;;;;;;;;;;4997723;28;20048;-73
2022/08/28 08:14:20;;;;;;;4.85;1.63;;;;;;;;;;4985272;28;20044;-72
2022/08/28 08:16:46;;;;;;;6.05;1.40;;;;;;;;;;4978126;28;21950;-71
2022/08/28 08:19:15;;;;;;;3.63;1.45;;;;;;;;;;4975543;28;20636;-71
2022/08/28 08:21:42;;;;;;;5.60;1.80;;;;;;;;;;4974735;28;20765;-71
2022/08/28 08:24:08;;;;;;;3.75;1.27;;;;;;;;;;4972254;28;20367;-72
2022/08/28 08:26:33;;;;;;;5.20;1.10;;;;;;;;;;4972620;28;20320;-72
2022/08/28 08:28:59;;;;;;;5.30;1.55;;;;;;;;;;4958130;28;20786;-71
2022/08/28 08:31:25;;;;;;;4.55;1.27;;;;;;;;;;4977384;28;20125;-71
2022/08/28 08:33:57;;;;;;;3.95;1.40;;;;;;;;;;4969224;28;20052;-72
2022/08/28 08:36:24;;;;;;;4.40;1.40;;;;;;;;;;4974001;28;20716;-72
2022/08/28 08:38:49;;;;;;;4.13;1.30;;;;;;;;;;4983481;28;20041;-71
2022/08/28 08:41:27;;;;;;;5.43;1.42;;;;;;;;;;4978832;28;20037;-72
2022/08/28 08:44:07;;;;;;;5.88;1.60;;;;;;;;;;4979420;28;20052;-71
2022/08/28 08:46:50;;;;;;;5.38;1.40;;;;;;;;;;4979667;28;20706;-71
2022/08/28 08:49:17;;;;;;;5.13;1.40;;;;;;;;;;4978667;28;20477;-72
2022/08/28 08:51:46;;;;;;;4.68;1.30;;;;;;;;;;4974202;28;20029;-71
2022/08/28 08:54:13;;;;;;;3.92;1.30;;;;;;;;;;4975043;28;20111;-71
2022/08/28 08:56:40;;;;;;;3.55;1.27;;;;;;;;;;4971618;28;20038;-72
2022/08/28 08:59:07;;;;;;;2.88;1.10;;;;;;;;;;4948714;28;20029;-70
2022/08/28 09:01:54;;;;;;;7.30;1.50;;;;;;;;;;4956934;28;20029;-71
2022/08/28 09:04:38;;;;;;;3.83;1.23;;;;;;;;;;4968589;28;20033;-71
2022/08/28 09:07:19;;;;;;;6.60;1.30;;;;;;;;;;4980158;28;20942;-71
2022/08/28 09:09:54;;;;;;;3.83;1.20;;;;;;;;;;4978197;28;21059;-70
2022/08/28 09:12:24;;;;;;;5.32;1.50;;;;;;;;;;4977901;28;20116;-71
2022/08/28 09:15:08;;;;;;;4.22;1.17;;;;;;;;;;4985536;28;20038;-71
2022/08/28 09:17:34;;;;;;;4.25;1.27;;;;;;;;;;4957824;28;20175;-73
2022/08/28 09:19:59;;;;;;;4.75;1.45;;;;;;;;;;4978106;28;20041;-71
2022/08/28 09:22:25;;;;;;;4.32;1.25;;;;;;;;;;4958338;28;20037;-70
2022/08/28 09:24:51;;;;;;;3.42;1.38;;;;;;;;;;4964700;28;20034;-71
2022/08/28 09:27:27;;;;;;;3.70;1.35;;;;;;;;;;4947979;28;20067;-71
2022/08/28 09:30:06;;;;;;;5.47;1.83;;;;;;;;;;4958512;28;20798;-69
2022/08/28 09:32:32;;;;;;;4.90;1.33;;;;;;;;;;4978043;28;20581;-71
2022/08/28 09:35:17;;;;;;;4.75;1.35;;;;;;;;;;4977432;28;20824;-70
2022/08/28 09:37:43;;;;;;;5.63;1.50;;;;;;;;;;4977374;28;20462;-70
2022/08/28 09:40:14;;;;;;;2.95;1.27;;;;;;;;;;4975993;28;20044;-72
2022/08/28 09:45:24;;;;;;;7.22;1.48;;;;;;;;;;4981750;28;19990;-69
2022/08/28 09:48:01;;;;;;;5.63;1.30;;;;;;;;;;4976460;28;20037;-69
2022/08/28 09:50:32;;;;;;;3.95;1.33;;;;;;;;;;4958445;28;20251;-71
2022/08/28 09:53:13;;;;;;;6.93;1.63;;;;;;;;;;4951537;28;20549;-72
2022/08/28 09:55:47;;;;;;;6.50;1.30;;;;;;;;;;4960213;28;20130;-71
2022/08/28 09:58:14;;;;;;;6.28;1.30;;;;;;;;;;4961121;28;20131;-69
2022/08/28 10:00:42;;;;;;;6.72;1.38;;;;;;;;;;4974513;28;20283;-69
2022/08/28 10:03:14;;;;;;;5.45;1.45;;;;;;;;;;4959864;28;20281;-69
2022/08/28 10:05:46;;;;;;;6.70;1.45;;;;;;;;;;4959458;28;21355;-69
2022/08/28 10:08:34;;;;;;;6.30;1.50;;;;;;;;;;4960982;28;20677;-69
2022/08/28 10:11:01;;;;;;;6.40;1.70;;;;;;;;;;4951410;28;20345;-69
2022/08/28 10:13:32;;;;;;;9.25;1.33;;;;;;;;;;4958492;28;20562;-68
2022/08/28 10:16:32;;;;;;;4.88;1.35;;;;;;;;;;4973533;28;20096;-69
2022/08/28 10:19:10;;;;;;;8.43;1.60;;;;;;;;;;4946578;28;20037;-69
2022/08/28 10:21:39;;;;;;;7.45;1.45;;;;;;;;;;4960546;28;20325;-71
2022/08/28 10:24:20;;;;;;;5.63;1.42;;;;;;;;;;4961181;28;20041;-68
2022/08/28 10:26:54;;;;;;;9.60;1.70;;;;;;;;;;4959378;28;20386;-69
2022/08/28 10:29:19;;;;;;;7.93;1.73;;;;;;;;;;4959121;28;20787;-69
2022/08/28 10:32:03;;;;;;;9.35;2.03;;;;;;;;;;4957991;28;20326;-69
2022/08/28 10:34:28;;;;;;;5.57;1.65;;;;;;;;;;4958716;28;20235;-69
2022/08/28 10:37:03;;;;;;;8.77;1.40;;;;;;;;;;4960936;28;20034;-70
2022/08/28 10:39:49;;;;;;;7.03;1.67;;;;;;;;;;4957587;28;20324;-69
2022/08/28 10:42:19;;;;;;;5.18;1.30;;;;;;;;;;4958466;28;20076;-68
2022/08/28 10:44:58;;;;;;;7.53;1.83;;;;;;;;;;4963998;28;20655;-69
2022/08/28 10:47:25;;;;;;;7.75;1.38;;;;;;;;;;4932940;28;20429;-69
2022/08/28 10:49:52;;;;;;;4.97;1.40;;;;;;;;;;4957437;28;20038;-68
2022/08/28 10:52:25;;;;;;;4.72;1.30;;;;;;;;;;4955318;28;20212;-68
2022/08/28 10:55:26;;;;;;;5.07;1.15;;;;;;;;;;4958079;28;20415;-68
2022/08/28 10:57:57;;;;;;;4.38;1.30;;;;;;;;;;4939941;28;20042;-68
2022/08/28 11:00:24;;;;;;;5.40;1.20;;;;;;;;;;4957947;28;20434;-68
2022/08/28 11:02:51;;;;;;;5.88;1.35;;;;;;;;;;4959900;28;20038;-68
2022/08/28 11:05:25;;;;;;;3.65;1.10;;;;;;;;;;4959319;28;20034;-68
2022/08/28 11:07:53;;;;;;;6.45;1.40;;;;;;;;;;4960995;28;20041;-68
2022/08/28 11:10:39;;;;;;;4.40;1.52;;;;;;;;;;4960608;28;20293;-69
2022/08/28 11:13:05;;;;;;;4.00;1.35;;;;;;;;;;4957835;28;20062;-69
2022/08/28 11:15:31;;;;;;;4.97;1.23;;;;;;;;;;4959010;28;20033;-68
2022/08/28 11:18:10;;;;;;;3.33;1.20;;;;;;;;;;4960179;28;20045;-70
2022/08/28 11:20:35;;;;;;;5.53;1.27;;;;;;;;;;4957993;28;20507;-69
2022/08/28 11:23:00;;;;;;;4.40;1.55;;;;;;;;;;4958108;28;20130;-70
2022/08/28 11:25:26;;;;;;;5.22;1.42;;;;;;;;;;4954139;28;20034;-70
2022/08/28 11:28:30;;;;;;;5.15;1.40;;;;;;;;;;4958355;28;20048;-70
2022/08/28 11:31:04;;;;;;;2.83;1.35;;;;;;;;;;4922853;28;20034;-69
2022/08/28 11:33:37;;;;;;;5.85;1.27;;;;;;;;;;4952499;28;20218;-69
2022/08/28 11:36:08;;;;;;;6.20;1.35;;;;;;;;;;4956600;28;20040;-69
2022/08/28 11:38:41;;;;;;;5.78;1.20;;;;;;;;;;4955395;28;21032;-68
2022/08/28 11:41:06;;;;;;;;;;;;;;;;;;4930565;28;20034;-71
2022/08/28 11:43:33;;;;;;;5.90;1.27;;;;;;;;;;4958925;28;19925;-72
2022/08/28 11:45:59;;;;;;;2.65;1.20;;;;;;;;;;4973831;28;20487;-72
2022/08/28 11:48:27;;;;;;;4.05;1.20;;;;;;;;;;4959036;28;20087;-74
2022/08/28 11:50:57;;;;;;;8.10;1.40;;;;;;;;;;4957751;28;20041;-72
2022/08/28 11:53:35;;;;;;;4.72;1.10;;;;;;;;;;4971426;28;20081;-73
2022/08/28 11:56:09;;;;;;;4.82;1.10;;;;;;;;;;4962113;28;20502;-72
2022/08/28 11:58:45;;;;;;;2.88;1.10;;;;;;;;;;4975929;28;20033;-72
2022/08/28 12:01:13;;;;;;;8.98;1.50;;;;;;;;;;4962259;28;20514;-72
2022/08/28 12:03:57;;;;;;;3.67;1.13;;;;;;;;;;4959043;28;20034;-71
2022/08/28 12:06:41;;;;;;;7.00;1.30;;;;;;;;;;4978192;28;20199;-70
2022/08/28 12:09:10;;;;;;;5.38;1.17;;;;;;;;;;4959742;28;20040;-72
2022/08/28 12:11:38;;;;;;;2.95;1.30;;;;;;;;;;4976028;28;20029;-72
2022/08/28 12:14:24;;;;;;;3.63;1.40;;;;;;;;;;4973623;28;20037;-71
2022/08/28 12:16:58;;;;;;;3.40;1.15;;;;;;;;;;4955563;28;20049;-72
2022/08/28 12:19:37;;;;;;;7.03;1.38;;;;;;;;;;4957193;28;20025;-71
2022/08/28 12:22:06;;;;;;;4.85;1.10;;;;;;;;;;4973949;28;20095;-72
2022/08/28 12:24:35;;;;;;;4.10;1.30;;;;;;;;;;4973191;28;20033;-72
2022/08/28 12:27:03;;;;;;;5.18;1.27;;;;;;;;;;4977677;28;20049;-71
2022/08/28 12:29:35;;;;;;;6.80;1.20;;;;;;;;;;4976809;28;20129;-73
2022/08/28 12:32:19;;;;;;;6.30;1.60;;;;;;;;;;4978130;28;20548;-72
2022/08/28 12:34:53;;;;;;;5.70;1.30;;;;;;;;;;4974575;28;20033;-72
2022/08/28 12:37:24;;;;;;;6.93;1.40;;;;;;;;;;4977229;28;20052;-72
2022/08/28 12:39:50;;;;;;;7.90;1.60;;;;;;;;;;4977473;28;20187;-72
2022/08/28 12:42:21;;;;;;;4.30;1.40;;;;;;;;;;4941969;28;20088;-74
2022/08/28 12:44:47;;;;;;;4.93;1.52;;;;;;;;;;4976561;28;20034;-71
2022/08/28 12:47:17;;;;;;;6.03;1.58;;;;;;;;;;4973997;28;20038;-71
2022/08/28 12:49:43;;;;;;;6.07;1.50;;;;;;;;;;4973387;28;20056;-72
2022/08/28 12:52:12;;;;;;;3.47;1.30;;;;;;;;;;4949992;28;20061;-72
2022/08/28 12:54:38;;;;;;;3.40;1.15;;;;;;;;;;4971543;28;20045;-71
2022/08/28 12:57:09;;;;;;;5.07;1.40;;;;;;;;;;4964598;28;20612;-67
2022/08/28 12:59:39;;;;;;;4.10;1.17;;;;;;;;;;4945399;28;20054;-72
2022/08/28 13:02:16;;;;;;;6.95;1.73;;;;;;;;;;4978784;28;20029;-71
2022/08/28 13:04:52;;;;;;;6.75;1.60;;;;;;;;;;4977902;28;20030;-72
2022/08/28 13:07:25;;;;;;;6.00;1.20;;;;;;;;;;4955889;28;20053;-73
2022/08/28 13:09:51;;;;;;;10.18;1.60;;;;;;;;;;4978286;28;20042;-71
2022/08/28 13:12:19;;;;;;;4.47;1.35;;;;;;;;;;4978191;28;20458;-72
2022/08/28 13:14:45;;;;;;;3.42;1.08;;;;;;;;;;4976557;28;20096;-72
2022/08/28 13:17:11;;;;;;;4.25;1.30;;;;;;;;;;4977065;28;20309;-74
2022/08/28 13:19:37;;;;;;;5.82;1.35;;;;;;;;;;4978878;28;20034;-72
2022/08/28 13:22:23;;;;;;;6.25;1.48;;;;;;;;;;4978352;28;20037;-73
2022/08/28 13:24:57;;;;;;;3.78;1.17;;;;;;;;;;4962999;28;20038;-72
2022/08/28 13:27:23;;;;;;;;;;;;;;;;;;4977137;28;20049;-72
2022/08/28 13:29:53;;;;;;;5.68;1.27;;;;;;;;;;4958147;28;19921;-72
2022/08/28 13:32:19;;;;;;;5.47;1.33;;;;;;;;;;4974640;28;20042;-70
2022/08/28 13:35:03;;;;;;;4.60;1.38;;;;;;;;;;4978251;28;20041;-71
2022/08/28 13:37:39;;;;;;;3.95;1.40;;;;;;;;;;4976600;28;20300;-70
2022/08/28 13:40:06;;;;;;;3.00;1.15;;;;;;;;;;4976573;28;20076;-72
2022/08/28 13:42:32;;;;;;;3.58;1.40;;;;;;;;;;4977967;28;20055;-71
2022/08/28 13:44:57;;;;;;;3.67;1.45;;;;;;;;;;4978310;28;21846;-71
2022/08/28 13:47:22;;;;;;;5.80;1.27;;;;;;;;;;4975584;28;20271;-71
2022/08/28 13:49:50;;;;;;;2.53;1.17;;;;;;;;;;4976225;28;20037;-71
2022/08/28 13:52:15;;;;;;;3.92;0.98;;;;;;;;;;4978658;28;20790;-72
2022/08/28 13:54:41;;;;;;;3.95;1.10;;;;;;;;;;4964522;28;20065;-71
2022/08/28 13:57:06;;;;;;;4.72;1.30;;;;;;;;;;4978030;28;20037;-71
2022/08/28 13:59:32;;;;;;;4.45;1.50;;;;;;;;;;4976255;28;20030;-71
2022/08/28 14:04:43;;;;;;;4.88;1.55;;;;;;;;;;4978045;28;20041;-71
2022/08/28 14:07:09;;;;;;;4.40;1.20;;;;;;;;;;4945925;28;20650;-71
2022/08/28 14:09:38;;;;;;;4.72;1.25;;;;;;;;;;4976968;28;20052;-70
2022/08/28 14:12:04;;;;;;;5.72;1.23;;;;;;;;;;4976971;28;20060;-74
2022/08/28 14:14:31;;;;;;;5.28;1.35;;;;;;;;;;4979073;28;20593;-71
2022/08/28 14:16:56;;;;;;;2.97;0.90;;;;;;;;;;4977997;28;20037;-72
2022/08/28 14:19:22;;;;;;;4.88;1.40;;;;;;;;;;4977599;28;20660;-71
2022/08/28 14:21:47;;;;;;;5.32;1.20;;;;;;;;;;4978341;28;20160;-75
2022/08/28 14:24:13;;;;;;;3.40;1.10;;;;;;;;;;4978310;28;20033;-71
2022/08/28 14:26:39;;;;;;;5.32;1.63;;;;;;;;;;4977995;28;20041;-73
2022/08/28 14:29:07;;;;;;;4.32;1.27;;;;;;;;;;4953173;28;20449;-73
2022/08/28 14:31:39;;;;;;;5.40;1.20;;;;;;;;;;4977564;28;20504;-75
2022/08/28 14:34:08;;;;;;;5.63;1.30;;;;;;;;;;4976676;28;20030;-73
2022/08/28 14:36:34;;;;;;;4.97;1.20;;;;;;;;;;4977148;28;20057;-72
2022/08/28 14:39:04;;;;;;;3.45;1.20;;;;;;;;;;4979344;28;20041;-74
2022/08/28 14:41:29;;;;;;;4.70;1.45;;;;;;;;;;4976721;28;20037;-75
2022/08/28 14:43:55;;;;;;;3.13;1.27;;;;;;;;;;4979317;28;20262;-73
2022/08/28 14:46:22;;;;;;;6.32;1.25;;;;;;;;;;4978241;28;20172;-72
2022/08/28 14:48:47;;;;;;;5.07;1.30;;;;;;;;;;4976347;28;20346;-72
2022/08/28 14:51:13;;;;;;;4.03;1.13;;;;;;;;;;4977322;28;20503;-73
2022/08/28 14:53:39;;;;;;;7.47;1.55;;;;;;;;;;4976757;28;20774;-71
2022/08/28 14:56:06;;;;;;;6.03;1.17;;;;;;;;;;4959989;28;20033;-72